createdAt,value
2023-10-23T00:02:18.567Z,16.26
2023-10-23T00:05:06.776Z,17.94
2023-10-23T00:07:48.538Z,17.27
2023-10-23T00:10:43.574Z,15.82
2023-10-23T00:13:38.548Z,15.77
2023-10-23T00:16:33.671Z,17.63
2023-10-23T00:19:29.546Z,17.18
2023-10-23T00:22:17.555Z,15.69
2023-10-23T00:24:59.592Z,15.34
2023-10-23T00:27:54.594Z,17.18
2023-10-23T00:30:43.651Z,17.67
2023-10-23T00:33:25.741Z,16.30
2023-10-23T00:36:13.559Z,15.03
2023-10-23T00:38:55.544Z,15.81
2023-10-23T00:41:43.566Z,17.47
2023-10-23T00:44:18.664Z,17.66
2023-10-23T00:47:06.588Z,16.30
2023-10-23T00:49:41.670Z,15.06
2023-10-23T00:52:29.537Z,14.96
2023-10-23T00:55:05.046Z,16.65
2023-10-23T00:57:52.611Z,17.46
2023-10-23T01:00:27.908Z,16.28
2023-10-23T01:03:15.661Z,14.98
2023-10-23T01:05:50.743Z,15.13
2023-10-23T01:08:38.556Z,16.96
2023-10-23T01:11:19.750Z,17.45
2023-10-23T01:14:00.568Z,16.17
2023-10-23T01:16:41.721Z,14.80
2023-10-23T01:19:36.575Z,15.02
2023-10-23T01:22:24.557Z,17.02
2023-10-23T01:24:59.859Z,17.29
2023-10-23T01:27:47.590Z,15.85
2023-10-23T01:30:22.741Z,14.58
2023-10-23T01:33:10.582Z,14.91
2023-10-23T01:35:45.689Z,16.47
2023-10-23T01:38:33.547Z,16.88
2023-10-23T01:41:08.684Z,15.61
2023-10-23T01:43:56.562Z,14.31
2023-10-23T01:46:31.709Z,14.36
2023-10-23T01:49:19.540Z,16.29
2023-10-23T01:51:53.717Z,16.65
2023-10-23T01:54:41.730Z,15.38
2023-10-23T01:57:16.808Z,14.12
2023-10-23T02:00:11.561Z,14.69
2023-10-23T02:02:46.714Z,16.44
2023-10-23T02:05:34.569Z,16.50
2023-10-23T02:08:10.335Z,15.16
2023-10-23T02:10:59.534Z,14.13
2023-10-23T02:13:34.696Z,15.32
2023-10-23T02:16:22.596Z,16.44
2023-10-23T02:18:57.745Z,15.54
2023-10-23T02:21:45.577Z,14.25
2023-10-23T02:24:30.584Z,14.42
2023-10-23T02:27:18.677Z,16.25
2023-10-23T02:29:53.794Z,16.20
2023-10-23T02:32:41.657Z,14.84
2023-10-23T02:35:22.678Z,14.40
2023-10-23T02:38:03.563Z,15.90
2023-10-23T02:40:44.660Z,16.52
2023-10-23T02:43:25.525Z,15.34
2023-10-23T02:46:17.551Z,14.24
2023-10-23T02:48:52.144Z,15.41
2023-10-23T02:51:40.644Z,16.42
2023-10-23T02:54:15.945Z,15.29
2023-10-23T02:57:03.545Z,14.12
2023-10-23T02:59:38.149Z,14.84
2023-10-23T03:02:26.548Z,16.36
2023-10-23T03:05:00.972Z,16.06
2023-10-23T03:07:48.562Z,14.71
2023-10-23T03:10:22.929Z,14.33
2023-10-23T03:13:10.576Z,16.02
2023-10-23T03:15:45.346Z,16.59
2023-10-23T03:18:33.694Z,15.32
2023-10-23T03:21:09.092Z,14.07
2023-10-23T03:23:56.609Z,13.82
2023-10-23T03:26:37.583Z,15.72
2023-10-23T03:29:18.769Z,16.48
2023-10-23T03:32:00.701Z,15.35
2023-10-23T03:34:41.731Z,14.06
2023-10-23T03:37:23.541Z,13.21
2023-10-23T03:40:04.777Z,13.53
2023-10-23T03:42:45.572Z,15.63
2023-10-23T03:45:26.667Z,16.39
2023-10-23T03:48:07.519Z,15.24
2023-10-23T03:50:55.557Z,13.92
2023-10-23T03:53:30.239Z,13.77
2023-10-23T03:56:21.537Z,15.53
2023-10-23T03:59:02.538Z,16.27
2023-10-23T04:01:50.549Z,14.98
2023-10-23T04:04:25.172Z,13.75
2023-10-23T04:07:13.585Z,13.63
2023-10-23T04:10:08.524Z,15.71
2023-10-23T04:12:56.542Z,16.33
2023-10-23T04:15:31.710Z,15.02
2023-10-23T04:18:19.520Z,13.79
2023-10-23T04:20:54.643Z,13.58
2023-10-23T04:23:43.541Z,15.29
2023-10-23T04:26:18.650Z,16.07
2023-10-23T04:29:06.549Z,14.97
2023-10-23T04:31:41.698Z,13.75
2023-10-23T04:34:29.551Z,13.48
2023-10-23T04:37:04.684Z,15.21
2023-10-23T04:39:52.584Z,15.88
2023-10-23T04:42:27.702Z,14.80
2023-10-23T04:45:16.534Z,13.69
2023-10-23T04:47:51.710Z,13.53
2023-10-23T04:50:40.545Z,15.23
2023-10-23T04:53:22.551Z,15.96
2023-10-23T04:56:19.554Z,14.75
2023-10-23T04:59:07.556Z,13.47
2023-10-23T05:01:42.711Z,13.25
2023-10-23T05:04:30.642Z,15.03
2023-10-23T05:07:05.724Z,15.94
2023-10-23T05:09:53.577Z,14.85
2023-10-23T05:12:29.924Z,13.64
2023-10-23T05:15:17.546Z,13.39
2023-10-23T05:17:52.760Z,15.09
2023-10-23T05:20:48.555Z,15.80
2023-10-23T05:23:29.922Z,14.54
2023-10-23T05:26:20.542Z,13.34
2023-10-23T05:29:02.541Z,13.22
2023-10-23T05:31:43.675Z,15.12
2023-10-23T05:34:24.544Z,15.93
2023-10-23T05:37:05.876Z,14.82
2023-10-23T05:39:47.554Z,13.69
2023-10-23T05:42:35.569Z,13.47
2023-10-23T05:45:10.779Z,15.18
2023-10-23T05:47:58.582Z,15.91
2023-10-23T05:50:32.979Z,14.77
2023-10-23T05:53:20.485Z,13.59
2023-10-23T05:55:55.403Z,13.40
2023-10-23T05:58:43.524Z,15.13
2023-10-23T06:01:18.452Z,15.66
2023-10-23T06:04:06.571Z,14.52
2023-10-23T06:06:41.076Z,13.45
2023-10-23T06:09:29.575Z,14.21
2023-10-23T06:12:12.508Z,15.69
2023-10-23T06:15:00.626Z,15.83
2023-10-23T06:17:42.516Z,14.64
2023-10-23T06:20:37.500Z,13.60
2023-10-23T06:23:25.868Z,13.87
2023-10-23T06:26:10.693Z,15.98
2023-10-23T06:28:58.550Z,16.57
2023-10-23T06:31:33.744Z,15.36
2023-10-23T06:34:21.512Z,14.26
2023-10-23T06:37:04.651Z,13.70
2023-10-23T06:40:00.967Z,15.49
2023-10-23T06:42:48.498Z,16.77
2023-10-23T06:45:37.766Z,15.67
2023-10-23T06:48:52.533Z,14.46
2023-10-23T06:51:40.517Z,13.94
2023-10-23T06:54:15.699Z,15.80
2023-10-23T06:57:03.520Z,17.04
2023-10-23T06:59:38.952Z,16.11
2023-10-23T07:02:27.524Z,15.07
2023-10-23T07:05:02.873Z,14.36
2023-10-23T07:07:51.500Z,14.60
2023-10-23T07:10:26.610Z,16.68
2023-10-23T07:13:22.032Z,17.39
2023-10-23T07:15:58.832Z,16.25
2023-10-23T07:18:46.675Z,15.29
2023-10-23T07:21:31.530Z,14.63
2023-10-23T07:24:48.146Z,15.16
2023-10-23T07:27:59.561Z,17.82
2023-10-23T07:30:34.638Z,17.55
2023-10-23T07:33:22.537Z,16.44
2023-10-23T07:36:13.568Z,15.61
2023-10-23T07:39:08.488Z,15.02
2023-10-23T07:41:56.474Z,15.57
2023-10-23T07:44:37.516Z,17.84
2023-10-23T07:47:32.497Z,18.44
2023-10-23T07:50:20.523Z,17.36
2023-10-23T07:52:55.718Z,16.53
2023-10-23T07:55:45.473Z,16.01
2023-10-23T07:58:26.664Z,15.58
2023-10-23T08:01:13.771Z,15.21
2023-10-23T08:03:54.727Z,15.67
2023-10-23T08:06:36.527Z,17.80
2023-10-23T08:09:25.467Z,18.55
2023-10-23T08:12:06.493Z,17.65
2023-10-23T08:14:52.767Z,16.90
2023-10-23T08:17:42.184Z,16.53
2023-10-23T08:20:31.457Z,16.27
2023-10-23T08:23:19.497Z,16.07
2023-10-23T08:25:54.605Z,15.99
2023-10-23T08:31:37.506Z,19.63
2023-10-23T08:34:29.638Z,20.15
2023-10-23T08:37:05.107Z,19.25
2023-10-23T08:39:53.797Z,18.41
2023-10-23T08:42:28.927Z,17.75
2023-10-23T08:45:16.490Z,17.30
2023-10-23T08:47:58.720Z,16.85
2023-10-23T08:50:40.706Z,16.49
2023-10-23T08:53:22.643Z,16.19
2023-10-23T08:56:03.499Z,16.03
2023-10-23T08:58:52.466Z,17.36
2023-10-23T09:01:37.026Z,19.68
2023-10-23T09:04:25.753Z,19.99
2023-10-23T09:07:01.913Z,19.04
2023-10-23T09:09:50.516Z,18.27
2023-10-23T09:12:39.475Z,17.78
2023-10-23T09:15:26.249Z,17.39
2023-10-23T09:18:10.846Z,17.18
2023-10-23T09:21:05.764Z,17.02
2023-10-23T09:24:11.690Z,16.91
2023-10-23T09:26:46.614Z,16.85
2023-10-23T09:29:35.497Z,16.83
2023-10-23T09:32:10.663Z,16.80
2023-10-23T09:34:58.504Z,16.83
2023-10-23T09:37:35.694Z,16.89
2023-10-23T09:40:25.814Z,16.91
2023-10-23T09:43:02.550Z,16.91
2023-10-23T09:45:50.528Z,16.86
2023-10-23T09:48:25.711Z,16.79
2023-10-23T09:51:13.478Z,16.69
2023-10-23T09:53:50.628Z,16.60
2023-10-23T09:56:39.734Z,16.54
2023-10-23T09:59:22.450Z,16.51
2023-10-23T10:02:13.560Z,16.49
2023-10-23T10:04:55.864Z,16.45
2023-10-23T10:07:50.776Z,16.38
2023-10-23T10:10:32.637Z,16.31
2023-10-23T10:13:28.502Z,16.25
2023-10-23T10:16:17.815Z,17.21
2023-10-23T10:18:53.940Z,19.73
2023-10-23T10:22:13.560Z,20.02
2023-10-23T10:24:49.810Z,19.08
2023-10-23T10:27:37.790Z,18.58
2023-10-23T10:30:14.594Z,18.28
2023-10-23T10:34:18.432Z,18.12
2023-10-23T10:36:13.709Z,18.00
2023-10-23T10:39:02.454Z,17.99
2023-10-23T10:41:41.878Z,17.99
2023-10-23T10:44:30.470Z,18.00
2023-10-23T10:47:05.649Z,18.03
2023-10-23T10:49:55.484Z,18.06
2023-10-23T10:52:34.693Z,18.16
2023-10-23T10:55:25.554Z,18.29
2023-10-23T10:58:01.500Z,18.43
2023-10-23T11:00:49.516Z,18.55
2023-10-23T11:03:26.044Z,18.61
2023-10-23T11:06:15.837Z,18.62
2023-10-23T11:08:50.597Z,18.55
2023-10-23T11:11:38.530Z,18.43
2023-10-23T11:14:13.869Z,18.41
2023-10-23T11:17:01.623Z,18.38
2023-10-23T11:19:36.675Z,18.42
2023-10-23T11:22:34.518Z,18.55
2023-10-23T11:25:10.596Z,18.71
2023-10-23T11:27:59.712Z,18.82
2023-10-23T11:30:35.996Z,18.81
2023-10-23T11:33:26.866Z,18.76
2023-10-23T11:36:02.303Z,18.75
2023-10-23T11:38:52.503Z,18.68
2023-10-23T11:41:29.721Z,18.57
2023-10-23T11:44:17.468Z,18.44
2023-10-23T11:46:52.779Z,18.28
2023-10-23T11:49:40.633Z,18.17
2023-10-23T11:52:22.609Z,18.07
2023-10-23T11:55:14.562Z,18.04
2023-10-23T11:57:52.739Z,18.06
2023-10-23T12:00:42.482Z,18.06
2023-10-23T12:03:17.639Z,18.05
2023-10-23T12:06:06.542Z,18.02
2023-10-23T12:08:41.952Z,17.92
2023-10-23T12:11:29.494Z,17.80
2023-10-23T12:14:04.650Z,17.73
2023-10-23T12:16:52.511Z,17.68
2023-10-23T12:19:27.655Z,17.68
2023-10-23T12:22:15.525Z,17.72
2023-10-23T12:24:50.642Z,17.78
2023-10-23T12:27:40.474Z,17.83
2023-10-23T12:30:28.979Z,17.87
2023-10-23T12:33:30.308Z,17.93
2023-10-23T12:36:23.477Z,18.00
2023-10-23T12:38:57.681Z,18.01
2023-10-23T12:41:45.542Z,17.93
2023-10-23T12:44:20.786Z,17.81
2023-10-23T12:47:08.570Z,17.72
2023-10-23T12:49:44.132Z,17.67
2023-10-23T12:52:32.479Z,17.94
2023-10-23T12:55:07.623Z,18.66
2023-10-23T12:57:55.640Z,19.28
2023-10-23T13:00:30.768Z,19.41
2023-10-23T13:03:18.492Z,19.37
2023-10-23T13:05:53.589Z,19.30
2023-10-23T13:08:41.522Z,19.47
2023-10-23T13:11:16.633Z,20.47
2023-10-23T13:14:05.469Z,21.75
2023-10-23T13:16:40.721Z,22.95
2023-10-23T13:19:28.503Z,23.92
2023-10-23T13:22:11.593Z,24.62
2023-10-23T13:25:00.466Z,25.05
2023-10-23T13:27:42.482Z,24.89
2023-10-23T13:30:37.501Z,24.40
2023-10-23T13:33:26.460Z,23.79
2023-10-23T13:36:01.653Z,23.29
2023-10-23T13:38:49.481Z,23.24
2023-10-23T13:41:24.612Z,23.25
2023-10-23T13:44:12.476Z,22.97
2023-10-23T13:46:54.576Z,22.62
2023-10-23T13:49:49.575Z,22.45
2023-10-23T13:52:38.486Z,22.18
2023-10-23T13:55:13.690Z,21.78
2023-10-23T13:58:01.519Z,21.29
2023-10-23T14:00:36.615Z,20.75
2023-10-23T14:03:27.576Z,20.27
2023-10-23T14:06:11.513Z,19.86
2023-10-23T14:09:42.420Z,19.50
2023-10-23T14:12:02.159Z,19.16
2023-10-23T14:14:50.584Z,18.84
2023-10-23T14:17:26.369Z,18.55
2023-10-23T14:20:23.739Z,18.25
2023-10-23T14:23:19.528Z,17.97
2023-10-23T14:26:08.730Z,17.75
2023-10-23T14:28:50.565Z,17.59
2023-10-23T14:31:45.633Z,17.44
2023-10-23T14:34:33.718Z,17.30
2023-10-23T14:37:09.006Z,17.17
2023-10-23T14:39:59.389Z,17.05
2023-10-23T14:42:34.961Z,16.91
2023-10-23T14:45:22.584Z,16.79
2023-10-23T14:48:04.269Z,16.66
2023-10-23T14:50:45.592Z,16.52
2023-10-23T14:53:27.892Z,16.37
2023-10-23T14:56:16.566Z,16.24
2023-10-23T14:58:57.777Z,16.09
2023-10-23T15:01:39.606Z,15.96
2023-10-23T15:04:21.672Z,15.84
2023-10-23T15:07:03.651Z,15.71
2023-10-23T15:09:44.603Z,15.59
2023-10-23T15:12:25.478Z,15.47
2023-10-23T15:15:13.475Z,15.34
2023-10-23T15:17:48.034Z,15.22
2023-10-23T15:20:37.832Z,15.10
2023-10-23T15:23:32.702Z,14.98
2023-10-23T15:26:20.495Z,14.86
2023-10-23T15:28:55.772Z,14.75
2023-10-23T15:31:43.540Z,14.63
2023-10-23T15:34:18.721Z,14.47
2023-10-23T15:37:06.559Z,14.30
2023-10-23T15:39:46.212Z,14.13
2023-10-23T15:42:36.497Z,13.97
2023-10-23T15:45:12.372Z,13.83
2023-10-23T15:48:07.545Z,13.69
2023-10-23T15:50:49.488Z,14.32
2023-10-23T15:53:37.532Z,16.91
2023-10-23T15:56:12.674Z,18.04
2023-10-23T15:59:00.499Z,17.18
2023-10-23T16:01:35.836Z,16.21
2023-10-23T16:04:23.536Z,15.56
2023-10-23T16:07:05.567Z,15.12
2023-10-23T16:10:00.535Z,14.78
2023-10-23T16:12:50.501Z,14.49
2023-10-23T16:15:27.623Z,14.26
2023-10-23T16:18:19.510Z,14.04
2023-10-23T16:20:58.558Z,13.84
2023-10-23T16:23:46.493Z,13.67
2023-10-23T16:26:21.664Z,14.26
2023-10-23T16:29:09.619Z,16.61
2023-10-23T16:31:51.613Z,17.99
2023-10-23T16:34:46.558Z,18.40
2023-10-23T16:37:40.267Z,17.22
2023-10-23T16:40:16.715Z,16.23
2023-10-23T16:43:07.552Z,15.56
2023-10-23T16:45:48.634Z,15.08
2023-10-23T16:48:29.496Z,14.74
2023-10-23T16:51:36.048Z,14.41
2023-10-23T16:54:26.504Z,14.09
2023-10-23T16:57:21.494Z,13.82
2023-10-23T17:00:11.329Z,13.59
2023-10-23T17:02:46.731Z,13.40
2023-10-23T17:05:35.515Z,13.22
2023-10-23T17:08:10.665Z,13.07
2023-10-23T17:10:58.502Z,13.54
2023-10-23T17:13:33.741Z,16.02
2023-10-23T17:16:21.531Z,17.18
2023-10-23T17:18:56.709Z,16.30
2023-10-23T17:21:51.823Z,15.36
2023-10-23T17:24:46.533Z,14.72
2023-10-23T17:27:35.543Z,14.31
2023-10-23T17:30:11.864Z,14.00
2023-10-23T17:33:00.611Z,13.74
2023-10-23T17:35:35.937Z,13.54
2023-10-23T17:38:25.531Z,13.36
2023-10-23T17:41:00.660Z,13.20
2023-10-23T17:43:49.342Z,13.04
2023-10-23T17:46:24.900Z,12.90
2023-10-23T17:49:19.723Z,12.76
2023-10-23T17:51:56.065Z,12.62
2023-10-23T17:54:46.630Z,13.22
2023-10-23T17:57:29.754Z,15.78
2023-10-23T18:00:28.993Z,16.93
2023-10-23T18:03:17.774Z,15.85
2023-10-23T18:05:53.313Z,14.90
2023-10-23T18:08:42.501Z,14.23
2023-10-23T18:11:20.465Z,13.73
2023-10-23T18:14:08.525Z,13.36
2023-10-23T18:16:43.865Z,13.06
2023-10-23T18:19:32.665Z,13.54
2023-10-23T18:22:15.482Z,15.93
2023-10-23T18:25:11.604Z,16.89
2023-10-23T18:28:01.607Z,15.82
2023-10-23T18:30:38.708Z,14.83
2023-10-23T18:33:26.488Z,14.14
2023-10-23T18:36:09.570Z,13.64
2023-10-23T18:38:51.464Z,14.01
2023-10-23T18:48:03.012Z,15.72
2023-10-23T18:50:51.631Z,14.78
2023-10-23T18:53:26.610Z,14.15
2023-10-23T18:56:14.476Z,13.69
2023-10-23T18:58:50.136Z,14.10
2023-10-23T19:01:39.329Z,16.43
2023-10-23T19:04:14.807Z,17.37
2023-10-23T19:07:02.773Z,16.37
2023-10-23T19:09:38.735Z,15.31
2023-10-23T19:12:28.745Z,14.57
2023-10-23T19:15:10.081Z,14.01
2023-10-23T19:17:53.395Z,13.64
2023-10-23T19:20:37.397Z,14.27
2023-10-23T19:23:19.765Z,16.54
2023-10-23T19:26:08.449Z,17.34
2023-10-23T19:28:49.750Z,16.31
2023-10-23T19:31:41.588Z,15.28
2023-10-23T19:34:17.112Z,14.59
2023-10-23T19:37:06.865Z,14.10
2023-10-23T19:39:42.421Z,13.66
2023-10-23T19:42:32.480Z,14.07
2023-10-23T19:45:09.082Z,16.22
2023-10-23T19:47:58.508Z,17.10
2023-10-23T19:50:46.062Z,15.98
2023-10-23T19:53:41.452Z,14.87
2023-10-23T19:56:32.864Z,14.08
2023-10-23T19:59:14.854Z,14.45
2023-10-23T20:01:56.621Z,16.34
2023-10-23T20:04:38.974Z,17.11
2023-10-23T20:07:20.512Z,16.10
2023-10-23T20:10:02.609Z,14.97
2023-10-23T20:12:43.535Z,14.17
2023-10-23T20:15:28.071Z,13.50
2023-10-23T20:18:09.658Z,13.58
2023-10-23T20:20:57.770Z,15.65
2023-10-23T20:23:34.265Z,16.98
2023-10-23T20:26:29.503Z,17.27
2023-10-23T20:29:03.889Z,16.01
2023-10-23T20:31:51.533Z,14.90
2023-10-23T20:34:32.814Z,14.09
2023-10-23T20:37:20.881Z,14.40
2023-10-23T20:39:57.087Z,16.56
2023-10-23T20:42:46.531Z,17.75
2023-10-23T20:45:22.115Z,17.30
2023-10-23T20:48:12.864Z,15.94
2023-10-23T20:51:01.749Z,14.82
2023-10-23T20:53:37.606Z,14.06
2023-10-23T20:56:28.138Z,13.43
2023-10-23T20:59:04.447Z,13.65
2023-10-23T21:01:53.536Z,15.79
2023-10-23T21:04:29.393Z,17.12
2023-10-23T21:07:18.497Z,17.01
2023-10-23T21:10:00.916Z,15.59
2023-10-23T21:12:56.000Z,14.38
2023-10-23T21:15:43.449Z,14.25
2023-10-23T21:18:25.447Z,16.14
2023-10-23T21:21:20.433Z,17.30
2023-10-23T21:24:08.438Z,16.61
2023-10-23T21:26:43.599Z,15.32
2023-10-23T21:29:32.461Z,14.35
2023-10-23T21:32:07.637Z,14.35
2023-10-23T21:34:55.467Z,16.17
2023-10-23T21:37:37.478Z,16.95
2023-10-23T21:40:25.459Z,15.81
2023-10-23T21:43:07.477Z,14.63
2023-10-23T21:49:05.495Z,14.18
2023-10-23T21:52:00.487Z,16.35
2023-10-23T21:54:48.478Z,16.86
2023-10-23T21:57:23.877Z,15.67
2023-10-23T22:00:17.477Z,14.52
2023-10-23T22:02:59.508Z,13.64
2023-10-23T22:05:56.437Z,13.69
2023-10-23T22:08:45.741Z,15.71
2023-10-23T22:11:21.568Z,16.68
2023-10-23T22:14:11.431Z,16.71
2023-10-23T22:16:47.090Z,15.28
2023-10-23T22:19:39.395Z,14.04
2023-10-23T22:22:14.596Z,13.11
2023-10-23T22:25:02.457Z,13.22
2023-10-23T22:27:44.452Z,15.32
2023-10-23T22:30:27.034Z,16.57
2023-10-23T22:33:16.474Z,16.51
2023-10-23T22:35:59.530Z,15.15
2023-10-23T22:38:40.745Z,13.94
2023-10-23T22:41:22.451Z,13.17
2023-10-23T22:44:10.463Z,13.36
2023-10-23T22:46:45.031Z,15.49
2023-10-23T22:49:33.494Z,16.27
2023-10-23T22:52:28.548Z,14.98
2023-10-23T22:55:18.484Z,13.68
2023-10-23T22:57:53.841Z,12.83
2023-10-23T23:00:41.456Z,13.15
2023-10-23T23:03:23.550Z,15.40
2023-10-23T23:06:13.456Z,16.21
2023-10-23T23:08:56.464Z,15.00
2023-10-23T23:11:51.465Z,13.75
2023-10-23T23:14:39.609Z,12.81
2023-10-23T23:17:14.677Z,12.91
2023-10-23T23:20:03.475Z,15.06
2023-10-23T23:22:38.726Z,15.98
2023-10-23T23:25:27.480Z,14.80
2023-10-23T23:28:02.572Z,13.56
2023-10-23T23:30:50.463Z,12.65
2023-10-23T23:33:32.554Z,11.98
2023-10-23T23:36:27.467Z,11.38
2023-10-23T23:39:17.450Z,11.77
2023-10-23T23:42:00.483Z,14.12
2023-10-23T23:44:55.453Z,14.94
2023-10-23T23:47:43.499Z,13.62
2023-10-23T23:50:38.445Z,12.42
2023-10-23T23:53:26.433Z,11.52
2023-10-23T23:56:00.584Z,11.61
2023-10-23T23:58:48.446Z,13.71
